Time;durP1;ratioP1;P1;durP2;ratioP2;P2;SDS_P1;SDS_P2;PMS_P1;PMS_P2;Temp;Humidity;BMP_temperature;BMP_pressure;BME280_temperature;BME280_humidity;BME280_pressure;Samples;Min_cycle;Max_cycle;Signal;HPM_P1;HPM_P2
2023/08/18 00:00:15;;;;;;;27.07;7.33;;;29.20;54.10;;;;;;5060126;28;20675;-74
2023/08/18 00:02:41;;;;;;;45.37;8.93;;;29.20;54.20;;;;;;5052286;28;20200;-74
2023/08/18 00:05:10;;;;;;;39.30;7.97;;;29.20;54.20;;;;;;5051283;28;20322;-74
2023/08/18 00:07:37;;;;;;;33.20;7.23;;;29.20;54.20;;;;;;5054845;28;20199;-74
2023/08/18 00:10:05;;;;;;;31.50;7.43;;;29.20;54.20;;;;;;5058443;28;20188;-74
2023/08/18 00:12:32;;;;;;;27.47;6.93;;;29.20;54.20;;;;;;5056413;28;20218;-74
2023/08/18 00:14:59;;;;;;;31.33;7.23;;;29.20;54.20;;;;;;5067979;28;20290;-73
2023/08/18 00:17:26;;;;;;;34.47;8.20;;;29.20;54.20;;;;;;5057027;28;20602;-74
2023/08/18 00:19:54;;;;;;;33.23;7.07;;;29.20;54.20;;;;;;5057153;28;20319;-74
2023/08/18 00:22:22;;;;;;;33.57;7.47;;;29.20;54.20;;;;;;5055081;28;20203;-74
2023/08/18 00:24:49;;;;;;;23.27;6.20;;;29.10;54.10;;;;;;5062637;28;20226;-74
2023/08/18 00:27:16;;;;;;;30.40;6.80;;;29.10;54.10;;;;;;5050699;28;20686;-74
2023/08/18 00:29:43;;;;;;;28.03;7.13;;;29.10;54.10;;;;;;5054028;28;20310;-73
2023/08/18 00:32:10;;;;;;;25.70;6.70;;;29.10;54.10;;;;;;5044723;28;20231;-73
2023/08/18 00:34:37;;;;;;;32.83;7.20;;;29.10;54.10;;;;;;5052326;28;20287;-73
2023/08/18 00:37:04;;;;;;;32.73;7.17;;;29.10;54.10;;;;;;5056219;28;20200;-74
2023/08/18 00:39:32;;;;;;;35.40;7.63;;;29.10;54.10;;;;;;5046578;28;20242;-74
2023/08/18 00:41:59;;;;;;;44.40;8.00;;;29.10;54.10;;;;;;5050867;28;20227;-74
2023/08/18 00:44:26;;;;;;;41.93;8.23;;;29.10;54.80;;;;;;5058624;28;20306;-74
2023/08/18 00:46:54;;;;;;;34.97;7.60;;;29.10;54.20;;;;;;5058650;28;20206;-74
2023/08/18 00:49:22;;;;;;;34.73;7.30;;;29.10;54.20;;;;;;5060897;28;20741;-74
2023/08/18 00:51:49;;;;;;;28.63;6.93;;;29.00;54.10;;;;;;5067023;28;20203;-73
2023/08/18 00:54:17;;;;;;;45.97;8.60;;;29.00;54.70;;;;;;5063337;28;20202;-74
2023/08/18 00:56:47;;;;;;;24.57;6.43;;;29.00;54.10;;;;;;5066078;28;20196;-75
2023/08/18 00:59:14;;;;;;;31.00;7.47;;;29.00;54.20;;;;;;5063077;28;20322;-75
2023/08/18 01:01:45;;;;;;;32.33;7.07;;;29.10;54.20;;;;;;5061854;28;20720;-75
2023/08/18 01:04:13;;;;;;;22.00;6.90;;;29.00;54.20;;;;;;5061467;28;20315;-74
2023/08/18 01:06:40;;;;;;;32.80;8.00;;;29.00;54.20;;;;;;5055514;28;20210;-74
2023/08/18 01:09:07;;;;;;;26.10;6.60;;;29.00;54.20;;;;;;5047274;28;20287;-74
2023/08/18 01:11:44;;;;;;;28.83;6.77;;;29.00;54.80;;;;;;5047559;28;20199;-74
2023/08/18 01:14:22;;;;;;;28.10;7.00;;;29.00;54.20;;;;;;5055922;28;20286;-75
2023/08/18 01:16:57;;;;;;;27.77;6.80;;;29.00;54.20;;;;;;5067035;28;20726;-74
2023/08/18 01:19:25;;;;;;;28.63;7.33;;;29.00;54.20;;;;;;5055888;28;20216;-74
2023/08/18 01:21:54;;;;;;;31.63;6.87;;;29.00;54.20;;;;;;5048936;28;20288;-74
2023/08/18 01:24:24;;;;;;;27.97;7.03;;;29.00;54.20;;;;;;5049247;28;20212;-74
2023/08/18 01:26:52;;;;;;;33.33;8.03;;;29.00;54.20;;;;;;5059570;28;20231;-75
2023/08/18 01:29:21;;;;;;;40.33;8.10;;;29.00;54.20;;;;;;5046217;28;20708;-75
2023/08/18 01:31:51;;;;;;;33.47;7.53;;;29.00;54.20;;;;;;5050682;28;20210;-75
2023/08/18 01:34:22;;;;;;;31.30;7.03;;;29.00;54.30;;;;;;5041028;28;20207;-75
2023/08/18 01:36:51;;;;;;;28.07;6.67;;;29.00;54.30;;;;;;5046505;28;20291;-75
2023/08/18 01:39:20;;;;;;;45.33;8.93;;;29.00;54.30;;;;;;5047065;28;20234;-75
2023/08/18 01:41:50;;;;;;;33.40;7.50;;;28.90;54.20;;;;;;5062006;28;20878;-75
2023/08/18 01:44:18;;;;;;;26.70;7.07;;;29.00;54.30;;;;;;5057718;28;20738;-75
2023/08/18 01:46:46;;;;;;;26.40;6.83;;;28.90;54.20;;;;;;5049733;28;20207;-75
2023/08/18 01:49:13;;;;;;;32.60;7.53;;;28.90;54.20;;;;;;5051719;28;20214;-75
2023/08/18 01:51:40;;;;;;;21.77;6.40;;;28.90;54.20;;;;;;5051874;28;20236;-75
2023/08/18 01:54:07;;;;;;;24.23;7.03;;;28.90;54.20;;;;;;5052460;28;20227;-75
2023/08/18 01:56:34;;;;;;;67.00;10.67;;;28.90;54.20;;;;;;5051616;28;20293;-75
2023/08/18 01:59:04;;;;;;;44.93;8.43;;;28.90;54.20;;;;;;5054629;28;20721;-75
2023/08/18 02:01:31;;;;;;;33.20;7.30;;;28.90;54.40;;;;;;5059606;28;20212;-75
2023/08/18 02:03:58;;;;;;;50.50;8.80;;;28.80;54.20;;;;;;5057201;28;20210;-75
2023/08/18 02:06:25;;;;;;;27.63;6.90;;;28.80;54.20;;;;;;5060059;28;20225;-75
2023/08/18 02:08:52;;;;;;;25.80;6.50;;;28.90;54.30;;;;;;5066909;28;20199;-75
2023/08/18 02:11:19;;;;;;;42.57;7.97;;;28.80;54.20;;;;;;5050026;28;20287;-75
2023/08/18 02:13:46;;;;;;;34.97;7.80;;;28.80;54.20;;;;;;5051398;28;20729;-74
2023/08/18 02:16:14;;;;;;;28.80;7.37;;;28.80;54.30;;;;;;5049799;28;20207;-74
2023/08/18 02:18:41;;;;;;;27.87;7.13;;;28.80;54.20;;;;;;5049310;28;20783;-75
2023/08/18 02:21:08;;;;;;;49.47;8.57;;;28.80;54.30;;;;;;5049806;28;20271;-75
2023/08/18 02:23:35;;;;;;;44.47;8.40;;;28.80;54.90;;;;;;5056717;28;20205;-74
2023/08/18 02:26:04;;;;;;;44.27;8.93;;;28.80;54.30;;;;;;5061603;28;20283;-74
2023/08/18 02:28:31;;;;;;;46.97;8.80;;;28.80;54.30;;;;;;5058472;28;20673;-80
2023/08/18 02:31:02;;;;;;;44.90;8.27;;;28.80;54.30;;;;;;5059606;28;20210;-75
2023/08/18 02:33:31;;;;;;;44.00;8.70;;;28.80;54.30;;;;;;5058966;28;20618;-75
2023/08/18 02:35:59;;;;;;;26.97;7.40;;;28.80;54.30;;;;;;5049192;28;20235;-75
2023/08/18 02:38:26;;;;;;;46.20;8.83;;;28.80;54.30;;;;;;5049080;28;20210;-75
2023/08/18 02:40:54;;;;;;;33.27;7.37;;;28.80;54.30;;;;;;5064198;28;20282;-75
2023/08/18 02:43:22;;;;;;;30.53;7.37;;;28.80;54.30;;;;;;5067531;28;20306;-75
2023/08/18 02:45:49;;;;;;;30.63;7.47;;;28.80;54.30;;;;;;5053480;28;20282;-75
2023/08/18 02:48:17;;;;;;;30.83;7.37;;;28.80;54.30;;;;;;5052278;28;20206;-75
2023/08/18 02:50:45;;;;;;;41.03;8.53;;;28.80;54.30;;;;;;5061803;28;20295;-75
2023/08/18 02:53:13;;;;;;;27.33;7.17;;;28.70;54.30;;;;;;5066775;28;20200;-75
2023/08/18 02:55:40;;;;;;;29.77;7.40;;;28.70;54.30;;;;;;5049081;28;20311;-75
2023/08/18 02:58:07;;;;;;;36.00;8.00;;;28.70;54.30;;;;;;5049305;28;20279;-75
2023/08/18 03:00:36;;;;;;;32.57;7.90;;;28.70;54.30;;;;;;5054468;28;20715;-74
2023/08/18 03:03:03;;;;;;;33.30;7.60;;;28.80;54.40;;;;;;5067145;28;20242;-74
2023/08/18 03:05:30;;;;;;;30.90;7.50;;;28.70;54.30;;;;;;5052480;28;20265;-74
2023/08/18 03:07:58;;;;;;;34.47;7.60;;;28.70;54.40;;;;;;5049103;28;20231;-74
2023/08/18 03:10:25;;;;;;;31.20;7.67;;;28.70;54.30;;;;;;5063740;28;20204;-74
2023/08/18 03:12:52;;;;;;;28.50;7.23;;;28.70;54.40;;;;;;5062873;28;20315;-74
2023/08/18 03:15:19;;;;;;;26.93;7.57;;;28.70;54.40;;;;;;5061519;28;20287;-74
2023/08/18 03:17:46;;;;;;;29.40;7.57;;;28.70;54.40;;;;;;5068948;28;20298;-74
2023/08/18 03:20:13;;;;;;;30.00;7.37;;;28.70;54.40;;;;;;5053061;28;20310;-74
2023/08/18 03:22:40;;;;;;;28.63;7.57;;;28.70;54.40;;;;;;5052304;28;20253;-74
2023/08/18 03:25:10;;;;;;;28.97;7.30;;;28.60;54.30;;;;;;5057515;28;20206;-75
2023/08/18 03:27:37;;;;;;;28.10;7.13;;;28.70;54.40;;;;;;5049014;28;20283;-74
2023/08/18 03:30:04;;;;;;;56.50;9.90;;;28.60;54.40;;;;;;5048191;28;20290;-74
2023/08/18 03:32:32;;;;;;;28.43;7.37;;;28.60;54.40;;;;;;5053282;28;20217;-75
2023/08/18 03:34:59;;;;;;;49.77;9.27;;;28.70;54.40;;;;;;5048551;28;20207;-76
2023/08/18 03:37:26;;;;;;;31.13;8.33;;;28.60;54.40;;;;;;5060358;28;20560;-75
2023/08/18 03:39:54;;;;;;;51.90;9.40;;;28.60;54.40;;;;;;5046358;28;20784;-75
2023/08/18 03:42:23;;;;;;;31.13;7.70;;;28.60;54.40;;;;;;5063836;28;20207;-75
2023/08/18 03:44:49;;;;;;;31.77;8.00;;;28.60;54.40;;;;;;5050284;28;20350;-75
2023/08/18 03:47:16;;;;;;;33.07;7.70;;;28.60;54.40;;;;;;5065881;28;20204;-75
2023/08/18 03:49:43;;;;;;;25.93;6.70;;;28.60;54.40;;;;;;5051414;28;20729;-74
2023/08/18 03:52:10;;;;;;;30.43;7.93;;;28.60;54.40;;;;;;5047723;28;20279;-75
2023/08/18 03:54:37;;;;;;;38.03;8.00;;;28.60;54.50;;;;;;5046980;28;20202;-75
2023/08/18 03:57:04;;;;;;;28.90;7.40;;;28.60;54.50;;;;;;5049233;28;20204;-74
2023/08/18 03:59:34;;;;;;;47.07;9.20;;;28.60;54.40;;;;;;5056013;28;20231;-74
2023/08/18 04:02:01;;;;;;;32.93;7.93;;;28.60;54.50;;;;;;5047127;28;20200;-75
2023/08/18 04:04:27;;;;;;;30.77;7.43;;;28.60;54.50;;;;;;5049898;28;20234;-75
2023/08/18 04:06:54;;;;;;;32.47;7.93;;;28.60;54.70;;;;;;5061284;28;20196;-75
2023/08/18 04:09:21;;;;;;;33.97;8.10;;;28.60;54.50;;;;;;5047192;28;20196;-75
2023/08/18 04:11:49;;;;;;;25.63;7.50;;;28.60;54.50;;;;;;5047394;28;20207;-74
2023/08/18 04:14:16;;;;;;;39.83;8.53;;;28.50;54.40;;;;;;5059452;28;20299;-75
2023/08/18 04:16:46;;;;;;;34.63;8.33;;;28.60;54.50;;;;;;5049262;28;20213;-75
2023/08/18 04:19:13;;;;;;;44.37;8.47;;;28.50;54.50;;;;;;5064063;28;20203;-75
2023/08/18 04:21:40;;;;;;;27.30;6.97;;;28.60;54.60;;;;;;5062127;28;20291;-74
2023/08/18 04:24:07;;;;;;;27.17;7.37;;;28.60;54.50;;;;;;5047503;28;20210;-74
2023/08/18 04:26:35;;;;;;;33.33;7.70;;;28.50;54.50;;;;;;5048191;28;20266;-74
2023/08/18 04:29:03;;;;;;;57.33;10.03;;;28.50;54.50;;;;;;5064264;28;20219;-74
2023/08/18 04:31:30;;;;;;;29.97;7.57;;;28.50;54.50;;;;;;5046566;28;20200;-75
2023/08/18 04:33:59;;;;;;;47.23;9.40;;;28.60;54.60;;;;;;5046943;28;20648;-74
2023/08/18 04:36:26;;;;;;;42.80;8.50;;;28.50;54.50;;;;;;5047173;28;20215;-75
2023/08/18 04:38:54;;;;;;;25.23;6.93;;;28.50;54.50;;;;;;5054938;28;20203;-75
2023/08/18 04:41:21;;;;;;;28.00;7.30;;;28.50;54.50;;;;;;5064945;28;20322;-75
2023/08/18 04:43:50;;;;;;;51.27;9.00;;;28.50;54.50;;;;;;5051212;28;20692;-75
2023/08/18 04:46:17;;;;;;;27.25;7.82;;;28.50;54.50;;;;;;5050211;28;20453;-73
2023/08/18 04:48:44;;;;;;;27.97;7.37;;;28.50;54.70;;;;;;5051220;28;20236;-73
2023/08/18 04:51:12;;;;;;;31.67;7.87;;;28.50;54.70;;;;;;5047579;28;20283;-73
2023/08/18 04:53:39;;;;;;;35.33;7.47;;;28.50;54.60;;;;;;5048780;28;20308;-73
2023/08/18 04:56:06;;;;;;;30.33;7.07;;;28.50;54.70;;;;;;5068417;28;20274;-74
2023/08/18 04:58:33;;;;;;;29.70;7.83;;;28.50;54.60;;;;;;5063432;28;20627;-74
2023/08/18 05:01:00;;;;;;;25.57;6.87;;;28.50;55.20;;;;;;5058555;28;20220;-74
2023/08/18 05:03:27;;;;;;;25.10;6.73;;;28.50;54.60;;;;;;5047705;28;20210;-73
2023/08/18 05:06:03;;;;;;;34.10;7.60;;;28.50;54.60;;;;;;5047466;28;20210;-73
2023/08/18 05:08:31;;;;;;;26.70;7.10;;;28.50;54.60;;;;;;5055213;28;20196;-73
2023/08/18 05:11:03;;;;;;;31.23;7.50;;;28.50;54.60;;;;;;5057062;28;20199;-73
2023/08/18 05:13:31;;;;;;;37.53;8.10;;;28.50;54.60;;;;;;5067061;28;20203;-73
2023/08/18 05:15:59;;;;;;;28.30;7.27;;;28.50;54.60;;;;;;5067327;28;20194;-73
2023/08/18 05:18:28;;;;;;;48.10;9.53;;;28.50;54.60;;;;;;5055726;28;20200;-73
2023/08/18 05:20:56;;;;;;;38.87;9.03;;;28.50;54.70;;;;;;5059559;28;20223;-73
2023/08/18 05:23:24;;;;;;;50.20;9.03;;;28.50;54.60;;;;;;5065943;28;20915;-73
2023/08/18 05:25:54;;;;;;;29.40;7.50;;;28.50;54.60;;;;;;5057225;28;20541;-73
2023/08/18 05:28:22;;;;;;;38.23;8.53;;;28.50;54.60;;;;;;5066813;28;20202;-73
2023/08/18 05:30:49;;;;;;;44.43;8.77;;;28.50;54.60;;;;;;5050236;28;20196;-73
2023/08/18 05:33:17;;;;;;;29.97;7.40;;;28.50;54.60;;;;;;5051866;28;20240;-73
2023/08/18 05:35:45;;;;;;;49.00;9.20;;;28.50;54.70;;;;;;5048269;28;20212;-73
2023/08/18 05:38:12;;;;;;;29.53;7.47;;;28.50;54.70;;;;;;5059387;28;20200;-74
2023/08/18 05:40:44;;;;;;;30.70;7.93;;;28.50;54.70;;;;;;5050299;28;20335;-73
2023/08/18 05:43:13;;;;;;;28.10;7.63;;;28.40;55.20;;;;;;5064552;28;20303;-73
2023/08/18 05:45:42;;;;;;;37.23;8.33;;;28.40;54.60;;;;;;5049928;28;20269;-73
2023/08/18 05:48:09;;;;;;;52.00;9.67;;;28.50;54.70;;;;;;5051043;28;20235;-73
2023/08/18 05:50:51;;;;;;;26.10;7.43;;;28.40;54.60;;;;;;5054426;28;20693;-73
2023/08/18 05:53:19;;;;;;;44.33;9.20;;;28.50;54.70;;;;;;5049126;28;20208;-73
2023/08/18 05:55:46;;;;;;;39.33;8.67;;;28.50;54.70;;;;;;5050153;28;20282;-73
2023/08/18 05:58:15;;;;;;;48.20;9.33;;;28.50;54.70;;;;;;5061583;28;20243;-73
2023/08/18 06:00:42;;;;;;;48.97;9.57;;;28.40;54.60;;;;;;5049266;28;20232;-74
2023/08/18 06:03:09;;;;;;;60.13;10.47;;;28.40;54.60;;;;;;5056195;28;20286;-73
2023/08/18 06:05:36;;;;;;;30.77;8.23;;;28.40;54.70;;;;;;5056646;28;20712;-74
2023/08/18 06:08:03;;;;;;;32.50;8.37;;;28.50;54.80;;;;;;5057319;28;20575;-74
2023/08/18 06:10:30;;;;;;;31.00;8.07;;;28.40;54.70;;;;;;5050092;28;20628;-73
2023/08/18 06:12:57;;;;;;;46.50;9.10;;;28.40;54.80;;;;;;5059905;28;20286;-74
2023/08/18 06:15:25;;;;;;;32.83;8.10;;;28.40;54.80;;;;;;5051563;28;20282;-73
2023/08/18 06:17:54;;;;;;;48.50;9.23;;;28.40;54.70;;;;;;5061576;28;20281;-74
2023/08/18 06:20:21;;;;;;;27.73;7.50;;;28.40;54.80;;;;;;5067366;28;20227;-75
2023/08/18 06:22:48;;;;;;;41.23;8.57;;;28.40;54.80;;;;;;5058223;28;20235;-73
2023/08/18 06:25:15;;;;;;;35.77;7.70;;;28.50;54.80;;;;;;5048807;28;20219;-74
2023/08/18 06:27:42;;;;;;;34.70;8.13;;;28.40;54.80;;;;;;5048310;28;20297;-74
2023/08/18 06:30:11;;;;;;;35.37;8.47;;;28.40;54.80;;;;;;5048788;28;20228;-72
2023/08/18 06:32:39;;;;;;;27.73;7.97;;;28.40;54.90;;;;;;5060701;28;20204;-71
2023/08/18 06:35:07;;;;;;;31.17;8.40;;;28.50;54.90;;;;;;5064561;28;20208;-72
2023/08/18 06:37:33;;;;;;;43.40;9.57;;;28.50;54.90;;;;;;5069216;28;20588;-72
2023/08/18 06:39:59;;;;;;;37.17;9.67;;;28.50;54.90;;;;;;5054672;28;20782;-72
2023/08/18 06:42:26;;;;;;;40.53;10.30;;;28.50;55.00;;;;;;5068336;28;20311;-72
2023/08/18 06:44:53;;;;;;;30.33;9.17;;;28.40;55.00;;;;;;5068298;28;20294;-72
2023/08/18 06:47:20;;;;;;;37.67;8.97;;;28.50;55.10;;;;;;5069292;28;20271;-72
2023/08/18 06:49:49;;;;;;;38.93;9.43;;;28.40;55.00;;;;;;5069936;28;20227;-72
2023/08/18 06:52:16;;;;;;;35.83;9.27;;;28.40;55.00;;;;;;5069416;28;20340;-72
2023/08/18 06:54:42;;;;;;;28.83;7.70;;;28.40;55.00;;;;;;5069587;28;20302;-71
2023/08/18 06:57:09;;;;;;;26.93;7.67;;;28.50;55.10;;;;;;5053019;28;20208;-72
2023/08/18 06:59:36;;;;;;;34.03;8.80;;;28.50;55.10;;;;;;5049424;28;20200;-72
2023/08/18 07:02:04;;;;;;;27.00;7.77;;;28.50;55.10;;;;;;5049436;28;20243;-71
2023/08/18 07:04:31;;;;;;;36.70;9.00;;;28.50;55.10;;;;;;5049255;28;20206;-72
2023/08/18 07:06:59;;;;;;;31.33;8.10;;;28.50;55.10;;;;;;5049340;28;20239;-72
2023/08/18 07:09:26;;;;;;;28.23;7.70;;;28.50;55.10;;;;;;5049305;28;20235;-72
2023/08/18 07:11:53;;;;;;;30.10;7.73;;;28.50;55.10;;;;;;5049286;28;20188;-72
2023/08/18 07:14:20;;;;;;;36.27;8.43;;;28.50;55.10;;;;;;5059943;28;20199;-72
2023/08/18 07:16:47;;;;;;;35.93;8.57;;;28.50;55.10;;;;;;5067720;28;20261;-72
2023/08/18 07:19:14;;;;;;;31.23;7.70;;;28.50;55.10;;;;;;5067916;28;20210;-71
2023/08/18 07:21:41;;;;;;;38.37;8.40;;;28.50;55.10;;;;;;5068582;28;20318;-72
2023/08/18 07:24:09;;;;;;;28.40;7.60;;;28.50;55.10;;;;;;5065055;28;20294;-71
2023/08/18 07:26:36;;;;;;;36.37;8.67;;;28.50;55.10;;;;;;5048601;28;20295;-71
2023/08/18 07:29:04;;;;;;;36.80;8.27;;;28.50;55.00;;;;;;5057451;28;20667;-71
2023/08/18 07:31:31;;;;;;;32.20;8.20;;;28.50;55.10;;;;;;5068485;28;20246;-72
2023/08/18 07:33:59;;;;;;;32.30;8.17;;;28.50;55.10;;;;;;5065985;28;20722;-72
2023/08/18 07:36:26;;;;;;;37.63;8.67;;;28.50;55.10;;;;;;5053388;28;20224;-72
2023/08/18 07:38:52;;;;;;;29.87;8.30;;;28.50;55.10;;;;;;5048162;28;20634;-72
2023/08/18 07:41:21;;;;;;;25.80;7.87;;;28.50;55.10;;;;;;5047063;28;20231;-73
2023/08/18 07:43:48;;;;;;;52.63;10.57;;;28.50;55.10;;;;;;5047639;28;20221;-72
2023/08/18 07:46:15;;;;;;;36.63;8.97;;;28.50;55.10;;;;;;5059953;28;20200;-74
2023/08/18 07:48:43;;;;;;;29.83;9.07;;;28.50;55.10;;;;;;5052659;28;20196;-72
2023/08/18 07:51:10;;;;;;;27.60;7.83;;;28.50;55.10;;;;;;5068927;28;20276;-73
2023/08/18 07:53:37;;;;;;;32.77;9.07;;;28.50;55.30;;;;;;5067155;28;20562;-72
2023/08/18 07:56:05;;;;;;;26.63;7.80;;;28.50;55.10;;;;;;5063713;28;20209;-72
2023/08/18 07:58:33;;;;;;;30.50;8.40;;;28.50;55.10;;;;;;5064005;28;20207;-72
2023/08/18 08:01:01;;;;;;;31.07;9.07;;;28.50;55.10;;;;;;5047837;28;20744;-72
2023/08/18 08:03:28;;;;;;;30.83;8.97;;;28.50;55.10;;;;;;5049985;28;20196;-71
2023/08/18 08:05:55;;;;;;;44.67;9.93;;;28.50;55.20;;;;;;5059999;28;20286;-71
2023/08/18 08:08:22;;;;;;;51.93;10.40;;;28.50;55.10;;;;;;5052033;28;20200;-73
2023/08/18 08:10:50;;;;;;;35.60;9.30;;;28.50;55.10;;;;;;5057519;28;20840;-72
2023/08/18 08:13:16;;;;;;;33.80;10.00;;;28.50;55.10;;;;;;5047978;28;20302;-73
2023/08/18 08:15:45;;;;;;;35.67;9.70;;;28.60;55.20;;;;;;5047009;28;20206;-72
2023/08/18 08:18:13;;;;;;;38.93;9.60;;;28.60;55.20;;;;;;5048170;28;20204;-73
2023/08/18 08:20:41;;;;;;;31.47;8.97;;;28.60;55.20;;;;;;5047429;28;20228;-72
2023/08/18 08:23:08;;;;;;;29.43;9.00;;;28.60;55.20;;;;;;5047028;28;20222;-71
2023/08/18 08:25:35;;;;;;;34.77;10.90;;;28.60;55.20;;;;;;5057830;28;20200;-72
2023/08/18 08:28:02;;;;;;;34.23;10.53;;;28.60;55.20;;;;;;5049948;28;20282;-72
2023/08/18 08:30:30;;;;;;;30.77;10.17;;;28.60;55.20;;;;;;5053399;28;20984;-73
2023/08/18 08:32:58;;;;;;;34.50;10.97;;;28.60;55.20;;;;;;5047431;28;20235;-74
2023/08/18 08:35:25;;;;;;;30.90;10.70;;;28.60;55.20;;;;;;5054729;28;20214;-74
2023/08/18 08:37:52;;;;;;;44.60;12.43;;;28.60;55.20;;;;;;5054429;28;20282;-74
2023/08/18 08:40:21;;;;;;;33.73;11.83;;;28.60;55.80;;;;;;5050053;28;20211;-74
2023/08/18 08:42:53;;;;;;;48.20;13.07;;;28.60;55.20;;;;;;5050994;28;20231;-75
2023/08/18 08:45:20;;;;;;;30.50;12.20;;;28.60;55.20;;;;;;5064098;28;21092;-71
2023/08/18 08:47:48;;;;;;;37.53;12.53;;;28.60;55.20;;;;;;5055823;28;20282;-69
2023/08/18 08:50:18;;;;;;;37.50;13.00;;;28.60;55.20;;;;;;5066028;28;21034;-72
2023/08/18 08:52:49;;;;;;;38.87;12.53;;;28.60;55.20;;;;;;5055350;28;20634;-71
2023/08/18 08:55:19;;;;;;;40.50;13.33;;;28.60;55.30;;;;;;5054407;28;20287;-72
2023/08/18 08:57:46;;;;;;;36.17;13.33;;;28.60;55.90;;;;;;5062216;28;20313;-72
2023/08/18 09:00:15;;;;;;;35.03;12.93;;;28.60;55.30;;;;;;5051940;28;20196;-70
2023/08/18 09:02:43;;;;;;;35.43;14.00;;;28.60;55.30;;;;;;5050891;28;20232;-70
2023/08/18 09:05:11;;;;;;;38.50;14.23;;;28.60;55.30;;;;;;5062249;28;20283;-69
2023/08/18 09:07:39;;;;;;;32.73;13.80;;;28.60;55.40;;;;;;5068925;28;20198;-71
2023/08/18 09:10:07;;;;;;;28.97;13.60;;;28.60;55.40;;;;;;5061165;28;20314;-70
2023/08/18 09:12:34;;;;;;;34.37;14.27;;;28.70;55.50;;;;;;5070885;28;20207;-73
2023/08/18 09:15:01;;;;;;;67.83;17.40;;;28.70;55.50;;;;;;5066233;28;20235;-70
2023/08/18 09:17:28;;;;;;;33.57;14.50;;;28.70;55.50;;;;;;5064776;28;20279;-71
2023/08/18 09:19:57;;;;;;;40.63;15.67;;;28.70;55.50;;;;;;5067917;28;20196;-72
2023/08/18 09:22:24;;;;;;;35.77;14.50;;;28.70;55.50;;;;;;5069430;28;20235;-71
2023/08/18 09:24:53;;;;;;;41.77;14.83;;;28.70;55.50;;;;;;5057060;28;20572;-72
2023/08/18 09:27:21;;;;;;;54.57;17.53;;;28.80;55.50;;;;;;5050499;28;20572;-72
2023/08/18 09:29:48;;;;;;;41.13;15.80;;;28.80;55.50;;;;;;5051593;28;20566;-71
2023/08/18 09:32:15;;;;;;;32.90;15.07;;;28.70;55.40;;;;;;5068720;28;20641;-72
2023/08/18 09:34:44;;;;;;;29.23;14.63;;;28.80;55.50;;;;;;5057928;28;20291;-71
2023/08/18 09:37:11;;;;;;;51.90;17.47;;;28.80;55.50;;;;;;5050778;28;20545;-71
2023/08/18 09:39:38;;;;;;;48.00;16.00;;;28.80;55.50;;;;;;5050274;28;20201;-71
2023/08/18 09:42:07;;;;;;;35.10;14.93;;;28.80;55.50;;;;;;5050339;28;20775;-73
2023/08/18 09:44:35;;;;;;;36.33;16.37;;;28.80;55.50;;;;;;5054120;28;20208;-70
2023/08/18 09:47:04;;;;;;;35.87;15.10;;;28.80;55.40;;;;;;5050945;28;20712;-71
2023/08/18 09:49:35;;;;;;;35.33;15.80;;;28.80;55.40;;;;;;5050277;28;20265;-71
2023/08/18 09:52:04;;;;;;;43.17;15.70;;;28.80;55.70;;;;;;5049828;28;20551;-71
2023/08/18 09:54:35;;;;;;;33.87;15.40;;;28.80;55.30;;;;;;5052756;28;20204;-71
2023/08/18 09:57:12;;;;;;;39.33;15.40;;;28.80;56.00;;;;;;5054745;28;20291;-70
2023/08/18 09:59:43;;;;;;;38.63;14.80;;;28.90;55.40;;;;;;5052834;28;20231;-71
2023/08/18 10:02:15;;;;;;;33.40;15.83;;;28.80;55.40;;;;;;5069262;28;20716;-71
2023/08/18 10:04:43;;;;;;;28.57;14.33;;;28.80;55.30;;;;;;5068289;28;20211;-72
2023/08/18 10:07:11;;;;;;;53.57;16.87;;;28.90;55.40;;;;;;5067290;28;20654;-71
2023/08/18 10:09:40;;;;;;;42.63;17.10;;;28.80;55.40;;;;;;5048974;28;20208;-72
2023/08/18 10:12:10;;;;;;;31.67;15.03;;;28.90;55.40;;;;;;5049682;28;20224;-71
2023/08/18 10:14:39;;;;;;;36.93;16.03;;;28.90;55.50;;;;;;5054175;28;20684;-70
2023/08/18 10:17:06;;;;;;;35.87;16.47;;;28.90;55.50;;;;;;5059989;28;20270;-71
2023/08/18 10:19:47;;;;;;;42.50;16.50;;;28.90;55.50;;;;;;5061749;28;20242;-71
2023/08/18 10:22:15;;;;;;;55.90;17.20;;;28.90;55.60;;;;;;5044520;28;20231;-71
2023/08/18 10:24:45;;;;;;;41.73;15.73;;;29.00;55.60;;;;;;5046463;28;20295;-71
2023/08/18 10:27:14;;;;;;;39.87;15.50;;;29.00;55.60;;;;;;5047134;28;20197;-72
2023/08/18 10:29:44;;;;;;;41.33;15.87;;;29.00;55.60;;;;;;5052939;28;20203;-71
2023/08/18 10:32:13;;;;;;;39.33;16.07;;;29.00;56.20;;;;;;5055889;28;20192;-78
2023/08/18 10:34:40;;;;;;;47.20;17.27;;;29.00;55.70;;;;;;5065106;28;20226;-74
2023/08/18 10:37:10;;;;;;;55.93;18.50;;;29.00;55.70;;;;;;5061675;28;20206;-72
2023/08/18 10:39:40;;;;;;;35.23;16.10;;;29.10;55.80;;;;;;5049197;28;20204;-76
2023/08/18 10:42:13;;;;;;;41.63;16.43;;;29.10;55.80;;;;;;5049212;28;20314;-72
2023/08/18 10:45:03;;;;;;;39.97;16.07;;;29.10;55.70;;;;;;5052911;28;20200;-71
2023/08/18 10:47:31;;;;;;;35.83;15.30;;;29.10;55.80;;;;;;5050092;28;20226;-72
2023/08/18 10:49:59;;;;;;;37.73;15.07;;;29.10;55.70;;;;;;5055904;28;20634;-73
2023/08/18 10:52:28;;;;;;;37.63;16.70;;;29.20;55.70;;;;;;5069446;28;20210;-73
2023/08/18 10:54:55;;;;;;;31.60;15.10;;;29.20;55.70;;;;;;5069526;28;20196;-71
2023/08/18 10:57:22;;;;;;;37.43;15.53;;;29.20;55.70;;;;;;5055267;28;20206;-72
2023/08/18 10:59:49;;;;;;;34.67;14.73;;;29.20;55.60;;;;;;5066816;28;20218;-73
2023/08/18 11:02:18;;;;;;;37.23;16.67;;;29.30;55.70;;;;;;5069021;28;20634;-73
2023/08/18 11:04:45;;;;;;;47.03;17.10;;;29.20;55.60;;;;;;5067900;28;20203;-73
2023/08/18 11:07:12;;;;;;;36.60;15.67;;;29.20;56.20;;;;;;5064689;28;20295;-71
2023/08/18 11:09:39;;;;;;;31.67;14.93;;;29.30;55.70;;;;;;5068875;28;20216;-74
2023/08/18 11:12:07;;;;;;;52.20;17.30;;;29.30;55.70;;;;;;5067081;28;20214;-73
2023/08/18 11:14:33;;;;;;;33.87;15.93;;;29.30;55.70;;;;;;5061418;28;20558;-73
2023/08/18 11:17:00;;;;;;;50.77;16.60;;;29.30;55.70;;;;;;5053601;28;20227;-77
2023/08/18 11:19:29;;;;;;;35.37;15.80;;;29.30;55.80;;;;;;5059820;28;20246;-73
2023/08/18 11:21:56;;;;;;;32.87;14.97;;;29.30;55.80;;;;;;5066477;28;20311;-71
2023/08/18 11:24:25;;;;;;;36.40;15.17;;;29.30;55.80;;;;;;5056934;28;20207;-70
2023/08/18 11:26:52;;;;;;;41.43;15.80;;;29.30;55.80;;;;;;5054606;28;20539;-71
2023/08/18 11:29:19;;;;;;;56.07;16.93;;;29.40;55.90;;;;;;5063163;28;20419;-73
2023/08/18 11:31:46;;;;;;;32.70;14.80;;;29.40;55.80;;;;;;5062188;28;20422;-73
2023/08/18 11:34:15;;;;;;;33.17;15.80;;;29.40;56.50;;;;;;5062728;28;20210;-74
2023/08/18 11:36:45;;;;;;;44.87;16.20;;;29.40;55.90;;;;;;5062233;28;21057;-83
2023/08/18 11:39:12;;;;;;;36.37;14.93;;;29.50;56.00;;;;;;5049541;28;20668;-72
2023/08/18 11:41:40;;;;;;;43.50;15.40;;;29.50;56.00;;;;;;5046672;28;20317;-69
2023/08/18 11:44:08;;;;;;;35.00;14.77;;;29.50;55.90;;;;;;5063471;28;20628;-68
2023/08/18 11:46:35;;;;;;;34.00;15.53;;;29.50;55.80;;;;;;5068447;28;20204;-69
2023/08/18 11:49:02;;;;;;;30.77;15.53;;;29.50;55.80;;;;;;5066431;28;20213;-68
2023/08/18 11:51:30;;;;;;;55.60;17.03;;;29.50;55.80;;;;;;5067318;28;20213;-73
2023/08/18 11:53:58;;;;;;;31.37;15.43;;;29.50;55.80;;;;;;5060054;28;20282;-76
2023/08/18 11:56:26;;;;;;;41.43;17.97;;;29.50;55.80;;;;;;5055202;28;20234;-70
2023/08/18 11:58:53;;;;;;;37.83;17.13;;;29.60;55.90;;;;;;5060104;28;20208;-70
2023/08/18 12:01:22;;;;;;;37.23;17.37;;;29.60;55.80;;;;;;5049239;28;20207;-72
2023/08/18 12:03:56;;;;;;;36.77;16.77;;;29.60;55.80;;;;;;5057655;28;20215;-70
2023/08/18 12:06:25;;;;;;;49.00;17.77;;;29.60;55.90;;;;;;5047610;28;20202;-75
2023/08/18 12:08:52;;;;;;;36.17;16.20;;;29.60;55.90;;;;;;5047463;28;20704;-72
2023/08/18 12:11:20;;;;;;;33.03;15.47;;;29.60;56.00;;;;;;5056362;28;20290;-72
2023/08/18 12:13:47;;;;;;;39.93;15.43;;;29.60;56.00;;;;;;5054238;28;20203;-75
2023/08/18 12:16:14;;;;;;;40.57;16.87;;;29.60;56.10;;;;;;5052551;28;20287;-75
2023/08/18 12:18:41;;;;;;;40.37;16.93;;;29.70;56.20;;;;;;5055148;28;20204;-73
2023/08/18 12:21:08;;;;;;;34.93;16.70;;;29.70;56.30;;;;;;5063142;28;20199;-74
2023/08/18 12:23:35;;;;;;;49.47;17.53;;;29.80;56.30;;;;;;5061439;28;20326;-77
2023/08/18 12:26:04;;;;;;;49.43;17.03;;;29.90;56.30;;;;;;5060633;28;20216;-70
2023/08/18 12:28:33;;;;;;;38.00;15.67;;;30.00;56.30;;;;;;5047516;28;20207;-74
2023/08/18 12:31:01;;;;;;;36.97;15.17;;;30.00;56.40;;;;;;5061320;28;20195;-79
2023/08/18 12:33:28;;;;;;;36.23;16.00;;;30.10;56.50;;;;;;5066721;28;20196;-72
2023/08/18 12:35:55;;;;;;;34.87;15.63;;;30.20;56.60;;;;;;5053911;28;20207;-74